createdAt,value
2022-08-20T00:01:10.115Z,100.00
2022-08-20T00:03:40.389Z,100.00
2022-08-20T00:06:20.783Z,100.00
2022-08-20T00:08:47.610Z,100.00
2022-08-20T00:11:19.128Z,100.00
2022-08-20T00:13:56.219Z,100.00
2022-08-20T00:16:26.050Z,100.00
2022-08-20T00:18:53.365Z,100.00
2022-08-20T00:21:21.185Z,100.00
2022-08-20T00:23:50.676Z,100.00
2022-08-20T00:26:18.561Z,100.00
2022-08-20T00:28:45.173Z,100.00
2022-08-20T00:31:14.375Z,100.00
2022-08-20T00:33:41.388Z,100.00
2022-08-20T00:36:10.797Z,100.00
2022-08-20T00:38:39.942Z,100.00
2022-08-20T00:41:09.936Z,100.00
2022-08-20T00:44:04.891Z,100.00
2022-08-20T00:46:33.190Z,100.00
2022-08-20T00:49:09.925Z,100.00
2022-08-20T00:52:08.826Z,100.00
2022-08-20T00:55:52.995Z,100.00
2022-08-20T00:58:19.676Z,100.00
2022-08-20T01:00:47.795Z,100.00
2022-08-20T01:03:17.615Z,100.00
2022-08-20T01:05:46.956Z,100.00
2022-08-20T01:08:14.830Z,100.00
2022-08-20T01:10:44.751Z,100.00
2022-08-20T01:13:14.583Z,100.00
2022-08-20T01:15:44.100Z,100.00
2022-08-20T01:18:17.776Z,100.00
2022-08-20T01:20:52.701Z,100.00
2022-08-20T01:23:28.383Z,100.00
2022-08-20T01:26:18.501Z,100.00
2022-08-20T01:28:52.971Z,100.00
2022-08-20T01:31:25.972Z,100.00
2022-08-20T01:33:54.103Z,100.00
2022-08-20T01:36:27.141Z,100.00
2022-08-20T01:38:54.756Z,100.00
2022-08-20T01:42:05.081Z,100.00
2022-08-20T01:44:32.674Z,100.00
2022-08-20T01:47:22.330Z,100.00
2022-08-20T01:50:03.183Z,100.00
2022-08-20T01:52:57.666Z,100.00
2022-08-20T01:55:24.445Z,100.00
2022-08-20T01:57:50.884Z,100.00
2022-08-20T02:00:20.509Z,100.00
2022-08-20T02:02:49.410Z,100.00
2022-08-20T02:05:16.282Z,100.00
2022-08-20T02:07:43.016Z,100.00
2022-08-20T02:10:18.996Z,100.00
2022-08-20T02:12:45.664Z,100.00
2022-08-20T02:15:12.964Z,100.00
2022-08-20T02:17:40.983Z,100.00
2022-08-20T02:20:11.804Z,100.00
2022-08-20T02:22:38.186Z,100.00
2022-08-20T02:25:08.913Z,100.00
2022-08-20T02:27:36.945Z,100.00
2022-08-20T02:30:11.188Z,100.00
2022-08-20T02:32:48.427Z,100.00
2022-08-20T02:35:15.919Z,100.00
2022-08-20T02:37:44.179Z,100.00
2022-08-20T02:40:15.270Z,100.00
2022-08-20T02:42:42.598Z,100.00
2022-08-20T02:45:11.594Z,100.00
2022-08-20T02:47:46.311Z,100.00
2022-08-20T02:50:17.348Z,100.00
2022-08-20T02:52:51.536Z,100.00
2022-08-20T02:55:28.105Z,100.00
2022-08-20T02:58:02.083Z,100.00
2022-08-20T03:00:32.193Z,100.00
2022-08-20T03:03:05.891Z,100.00
2022-08-20T03:05:32.523Z,100.00
2022-08-20T03:08:02.474Z,100.00
2022-08-20T03:10:33.417Z,100.00
2022-08-20T03:13:11.060Z,100.00
2022-08-20T03:15:43.117Z,100.00
2022-08-20T03:18:14.053Z,100.00
2022-08-20T03:20:41.851Z,100.00
2022-08-20T03:23:08.339Z,100.00
2022-08-20T03:25:35.759Z,100.00
2022-08-20T03:28:02.727Z,100.00
2022-08-20T03:30:30.380Z,100.00
2022-08-20T03:32:58.235Z,100.00
2022-08-20T03:35:27.075Z,100.00
2022-08-20T03:37:54.020Z,100.00
2022-08-20T03:40:25.141Z,100.00
2022-08-20T03:42:54.465Z,100.00
2022-08-20T03:45:22.896Z,100.00
2022-08-20T03:47:50.244Z,100.00
2022-08-20T03:50:23.573Z,100.00
2022-08-20T03:52:52.277Z,100.00
2022-08-20T03:55:20.223Z,100.00
2022-08-20T03:57:54.198Z,100.00
2022-08-20T04:00:27.039Z,100.00
2022-08-20T04:02:53.605Z,100.00
2022-08-20T04:05:21.342Z,100.00
2022-08-20T04:07:47.749Z,100.00
2022-08-20T04:10:14.411Z,100.00
2022-08-20T04:12:48.688Z,100.00
2022-08-20T04:15:20.377Z,100.00
2022-08-20T04:17:52.729Z,100.00
2022-08-20T04:20:28.863Z,100.00
2022-08-20T04:22:59.049Z,100.00
2022-08-20T04:25:29.862Z,100.00
2022-08-20T04:28:05.479Z,100.00
2022-08-20T04:30:32.990Z,100.00
2022-08-20T04:33:02.682Z,100.00
2022-08-20T04:35:30.626Z,100.00
2022-08-20T04:38:09.703Z,100.00
2022-08-20T04:40:58.291Z,100.00
2022-08-20T04:43:28.311Z,100.00
2022-08-20T04:46:01.698Z,100.00
2022-08-20T04:48:29.388Z,100.00
2022-08-20T04:50:57.198Z,100.00
2022-08-20T04:53:27.893Z,100.00
2022-08-20T04:55:57.110Z,100.00
2022-08-20T04:58:34.429Z,100.00
2022-08-20T05:01:05.678Z,100.00
2022-08-20T05:03:32.973Z,100.00
2022-08-20T05:06:03.963Z,100.00
2022-08-20T05:08:31.386Z,100.00
2022-08-20T05:11:33.886Z,100.00
2022-08-20T05:13:52.752Z,100.00
2022-08-20T05:16:20.136Z,100.00
2022-08-20T05:18:48.736Z,100.00
2022-08-20T05:21:19.240Z,100.00
2022-08-20T05:23:45.735Z,100.00
2022-08-20T05:26:13.006Z,100.00
2022-08-20T05:28:53.900Z,100.00
2022-08-20T05:31:32.665Z,100.00
2022-08-20T05:34:11.785Z,100.00
2022-08-20T05:36:45.491Z,100.00
2022-08-20T05:39:14.479Z,100.00
2022-08-20T05:41:41.095Z,100.00
2022-08-20T05:44:14.061Z,100.00
2022-08-20T05:46:43.363Z,100.00
2022-08-20T05:49:16.251Z,100.00
2022-08-20T05:51:44.005Z,100.00
2022-08-20T05:54:10.937Z,100.00
2022-08-20T05:56:37.781Z,100.00
2022-08-20T05:59:08.404Z,100.00
2022-08-20T06:01:37.522Z,100.00
2022-08-20T06:04:23.574Z,100.00
2022-08-20T06:06:52.238Z,100.00
2022-08-20T06:09:31.346Z,100.00
2022-08-20T06:12:03.630Z,100.00
2022-08-20T06:14:33.042Z,100.00
2022-08-20T06:17:09.424Z,100.00
2022-08-20T06:19:37.470Z,100.00
2022-08-20T06:22:08.559Z,100.00
2022-08-20T06:24:47.611Z,100.00
2022-08-20T06:27:18.789Z,100.00
2022-08-20T06:29:45.582Z,100.00
2022-08-20T06:32:12.009Z,100.00
2022-08-20T06:34:49.851Z,100.00
2022-08-20T06:37:30.908Z,100.00
2022-08-20T06:40:04.445Z,100.00
2022-08-20T06:42:30.912Z,100.00
2022-08-20T06:44:59.542Z,100.00
2022-08-20T06:47:25.975Z,100.00
2022-08-20T06:49:53.551Z,100.00
2022-08-20T06:52:20.043Z,100.00
2022-08-20T06:54:56.402Z,100.00
2022-08-20T06:57:22.838Z,100.00
2022-08-20T06:59:54.180Z,100.00
2022-08-20T07:02:20.915Z,100.00
2022-08-20T07:04:57.496Z,100.00
2022-08-20T07:07:23.910Z,100.00
2022-08-20T07:09:51.263Z,100.00
2022-08-20T07:12:17.871Z,100.00
2022-08-20T07:14:44.347Z,100.00
2022-08-20T07:17:12.216Z,100.00
2022-08-20T07:19:39.033Z,100.00
2022-08-20T07:22:06.406Z,100.00
2022-08-20T07:24:34.294Z,100.00
2022-08-20T07:27:02.254Z,100.00
2022-08-20T07:29:48.645Z,100.00
2022-08-20T07:32:33.486Z,100.00
2022-08-20T07:35:11.692Z,100.00
2022-08-20T07:37:41.438Z,100.00
2022-08-20T07:40:12.064Z,100.00
2022-08-20T07:42:41.759Z,100.00
2022-08-20T07:45:13.553Z,100.00
2022-08-20T07:47:41.735Z,100.00
2022-08-20T07:50:13.850Z,100.00
2022-08-20T07:52:40.463Z,100.00
2022-08-20T07:55:10.638Z,100.00
2022-08-20T07:57:37.918Z,100.00
2022-08-20T08:00:05.900Z,100.00
2022-08-20T08:02:32.303Z,100.00
2022-08-20T08:04:58.793Z,100.00
2022-08-20T08:07:28.440Z,100.00
2022-08-20T08:09:56.843Z,100.00
2022-08-20T08:12:25.276Z,100.00
2022-08-20T08:14:52.550Z,100.00
2022-08-20T08:17:19.175Z,100.00
2022-08-20T08:19:50.195Z,100.00
2022-08-20T08:22:20.669Z,100.00
2022-08-20T08:24:56.750Z,100.00
2022-08-20T08:27:24.001Z,100.00
2022-08-20T08:29:57.550Z,100.00
2022-08-20T08:32:24.658Z,100.00
2022-08-20T08:34:52.702Z,100.00
2022-08-20T08:37:19.230Z,100.00
2022-08-20T08:39:45.658Z,100.00
2022-08-20T08:42:37.091Z,100.00
2022-08-20T08:45:10.735Z,100.00
2022-08-20T08:47:39.048Z,100.00
2022-08-20T08:50:10.216Z,100.00
2022-08-20T08:52:42.590Z,100.00
2022-08-20T08:55:15.874Z,100.00
2022-08-20T08:57:43.409Z,100.00
2022-08-20T09:00:19.268Z,100.00
2022-08-20T09:03:01.301Z,98.67
2022-08-20T09:05:53.867Z,98.48
2022-08-20T09:08:25.931Z,98.84
2022-08-20T09:11:04.407Z,97.91
2022-08-20T09:13:34.404Z,98.40
2022-08-20T09:16:01.001Z,97.29
2022-08-20T09:18:31.043Z,98.84
2022-08-20T09:21:02.033Z,98.82
2022-08-20T09:23:28.398Z,95.82
2022-08-20T09:25:54.943Z,96.39
2022-08-20T09:28:21.342Z,96.21
2022-08-20T09:30:47.972Z,95.12
2022-08-20T09:33:14.449Z,94.96
2022-08-20T09:35:41.043Z,95.73
2022-08-20T09:38:08.183Z,97.09
2022-08-20T09:40:34.756Z,97.09
2022-08-20T09:43:01.501Z,96.10
2022-08-20T09:45:27.875Z,97.71
2022-08-20T09:47:54.964Z,96.95
2022-08-20T09:50:24.235Z,100.00
2022-08-20T09:52:57.512Z,100.00
2022-08-20T09:55:38.263Z,100.00
2022-08-20T09:58:19.785Z,100.00
2022-08-20T10:00:46.981Z,100.00
2022-08-20T10:03:13.521Z,100.00
2022-08-20T10:05:40.259Z,98.76
2022-08-20T10:08:08.754Z,96.24
2022-08-20T10:10:35.412Z,96.67
2022-08-20T10:13:04.634Z,94.69
2022-08-20T10:15:31.708Z,90.57
2022-08-20T10:17:58.431Z,92.65
2022-08-20T10:20:25.462Z,92.89
2022-08-20T10:22:55.779Z,91.70
2022-08-20T10:25:22.187Z,89.80
2022-08-20T10:27:52.888Z,90.10
2022-08-20T10:30:19.332Z,89.92
2022-08-20T10:32:45.838Z,89.67
2022-08-20T10:35:12.393Z,88.70
2022-08-20T10:37:41.222Z,89.02
2022-08-20T10:40:08.517Z,87.37
2022-08-20T10:42:37.955Z,87.03
2022-08-20T10:45:09.162Z,86.43
2022-08-20T10:47:35.627Z,84.94
2022-08-20T10:50:04.473Z,85.24
2022-08-20T10:52:30.860Z,86.28
2022-08-20T10:54:57.496Z,85.24
2022-08-20T10:57:29.522Z,85.66
2022-08-20T11:00:01.225Z,84.83
2022-08-20T11:02:28.086Z,84.88
2022-08-20T11:04:55.997Z,84.92
2022-08-20T11:07:54.988Z,84.32
2022-08-20T11:10:18.890Z,83.75
2022-08-20T11:12:46.626Z,83.35
2022-08-20T11:15:13.885Z,82.60
2022-08-20T11:17:42.658Z,83.38
2022-08-20T11:20:11.645Z,83.58
2022-08-20T11:22:38.350Z,83.44
2022-08-20T11:25:06.741Z,85.55
2022-08-20T11:27:40.184Z,86.27
2022-08-20T11:30:09.736Z,84.35
2022-08-20T11:32:38.477Z,80.49
2022-08-20T11:35:24.484Z,78.85
2022-08-20T11:37:57.268Z,77.22
2022-08-20T11:40:27.513Z,77.59
2022-08-20T11:43:13.701Z,78.93
2022-08-20T11:45:43.158Z,80.57
2022-08-20T11:48:09.683Z,78.63
2022-08-20T11:50:36.554Z,77.30
2022-08-20T11:53:03.278Z,77.54
2022-08-20T11:55:30.295Z,76.75
2022-08-20T11:57:59.854Z,73.98
2022-08-20T12:00:31.854Z,71.38
2022-08-20T12:03:04.995Z,71.70
2022-08-20T12:05:32.608Z,75.24
2022-08-20T12:08:01.426Z,74.28
2022-08-20T12:10:28.650Z,72.63
2022-08-20T12:12:56.661Z,71.15
2022-08-20T12:15:24.065Z,70.06
2022-08-20T12:17:50.871Z,69.17
2022-08-20T12:20:17.592Z,67.68
2022-08-20T12:22:44.640Z,67.74
2022-08-20T12:25:13.156Z,66.20
2022-08-20T12:27:40.218Z,64.62
2022-08-20T12:30:10.805Z,63.60
2022-08-20T12:32:37.713Z,63.19
2022-08-20T12:35:05.787Z,64.56
2022-08-20T12:37:32.878Z,61.69
2022-08-20T12:40:00.997Z,62.68
2022-08-20T12:42:30.276Z,60.78
2022-08-20T12:45:00.373Z,60.86
2022-08-20T12:47:36.150Z,59.17
2022-08-20T12:50:10.003Z,58.79
2022-08-20T12:52:37.265Z,58.58
2022-08-20T12:55:05.987Z,58.63
2022-08-20T12:57:36.098Z,59.44
2022-08-20T13:00:08.101Z,58.21
2022-08-20T13:02:34.861Z,57.35
2022-08-20T13:05:09.102Z,58.74
2022-08-20T13:07:36.377Z,56.59
2022-08-20T13:10:05.323Z,54.78
2022-08-20T13:12:31.822Z,53.14
2022-08-20T13:15:01.040Z,56.81
2022-08-20T13:17:38.756Z,58.03
2022-08-20T13:20:09.414Z,58.71
2022-08-20T13:22:40.318Z,56.64
2022-08-20T13:25:07.883Z,61.16
2022-08-20T13:27:38.281Z,59.20
2022-08-20T13:30:07.837Z,56.49
2022-08-20T13:32:34.506Z,54.14
2022-08-20T13:35:01.026Z,55.72
2022-08-20T13:37:29.203Z,56.62
2022-08-20T13:39:56.818Z,58.47
2022-08-20T13:42:23.426Z,56.36
2022-08-20T13:44:50.344Z,56.56
2022-08-20T13:47:25.751Z,54.29
2022-08-20T13:50:02.199Z,53.80
2022-08-20T13:52:28.938Z,52.57
2022-08-20T13:54:55.379Z,51.66
2022-08-20T13:57:24.669Z,50.56
2022-08-20T13:59:54.017Z,49.70
2022-08-20T14:02:21.079Z,50.72
2022-08-20T14:04:48.680Z,48.47
2022-08-20T14:07:22.142Z,48.95
2022-08-20T14:09:53.773Z,48.81
2022-08-20T14:12:23.125Z,48.53
2022-08-20T14:14:51.657Z,46.96
2022-08-20T14:17:24.462Z,44.72
2022-08-20T14:19:53.587Z,45.14
2022-08-20T14:22:21.926Z,45.57
2022-08-20T14:24:49.777Z,46.20
2022-08-20T14:27:19.742Z,46.12
2022-08-20T14:29:48.052Z,45.63
2022-08-20T14:32:15.522Z,43.85
2022-08-20T14:34:42.041Z,43.56
2022-08-20T14:37:25.120Z,45.00
2022-08-20T14:39:53.776Z,45.44
2022-08-20T14:42:22.982Z,44.86
2022-08-20T14:44:50.446Z,45.13
2022-08-20T14:47:21.901Z,45.72
2022-08-20T14:49:53.001Z,45.45
2022-08-20T14:52:20.886Z,45.50
2022-08-20T14:54:49.045Z,45.42
2022-08-20T14:57:18.261Z,45.01
2022-08-20T14:59:48.372Z,44.98
2022-08-20T15:02:16.947Z,44.05
2022-08-20T15:04:43.781Z,43.76
2022-08-20T15:07:30.011Z,42.83
2022-08-20T15:09:57.872Z,43.92
2022-08-20T15:12:24.639Z,44.11
2022-08-20T15:14:51.467Z,45.24
2022-08-20T15:17:27.778Z,45.35
2022-08-20T15:19:55.551Z,45.52
2022-08-20T15:22:22.951Z,46.96
2022-08-20T15:24:57.571Z,46.11
2022-08-20T15:27:25.297Z,46.58
2022-08-20T15:29:53.590Z,47.62
2022-08-20T15:32:21.276Z,47.19
2022-08-20T15:34:48.162Z,47.46
2022-08-20T15:37:23.137Z,47.21
2022-08-20T15:39:50.509Z,46.62
2022-08-20T15:42:18.650Z,47.64
2022-08-20T15:44:46.202Z,46.91
2022-08-20T15:47:27.694Z,46.24
2022-08-20T15:50:00.697Z,45.80
2022-08-20T15:52:32.507Z,46.53
2022-08-20T15:55:01.442Z,46.85
2022-08-20T15:57:36.997Z,46.65
2022-08-20T16:00:15.718Z,46.33
2022-08-20T16:02:58.651Z,45.17
2022-08-20T16:06:02.403Z,44.59
2022-08-20T16:08:42.682Z,44.64
2022-08-20T16:11:42.224Z,45.16
2022-08-20T16:14:11.377Z,45.82
2022-08-20T16:16:59.130Z,43.98
2022-08-20T16:19:34.842Z,44.81
2022-08-20T16:22:04.610Z,44.50
2022-08-20T16:24:34.450Z,44.35
2022-08-20T16:27:22.659Z,46.87
2022-08-20T16:30:07.260Z,45.31
2022-08-20T16:32:45.782Z,47.55
2022-08-20T16:35:29.032Z,46.99
2022-08-20T16:38:05.606Z,47.83
2022-08-20T16:41:11.058Z,46.73
2022-08-20T16:43:45.610Z,47.73
2022-08-20T16:46:21.471Z,47.60
2022-08-20T16:48:56.130Z,47.43
2022-08-20T16:51:51.958Z,46.91
2022-08-20T16:54:29.562Z,47.02
2022-08-20T16:57:01.384Z,47.73
2022-08-20T16:59:30.130Z,47.81
2022-08-20T17:02:18.430Z,49.55
2022-08-20T17:04:59.275Z,49.72
2022-08-20T17:07:46.152Z,50.63
2022-08-20T17:10:27.212Z,50.74
2022-08-20T17:13:05.145Z,51.42
2022-08-20T17:15:33.957Z,51.31
2022-08-20T17:18:25.563Z,51.33
2022-08-20T17:20:53.142Z,51.13
2022-08-20T17:23:24.223Z,51.52
2022-08-20T17:26:31.139Z,52.30
2022-08-20T17:29:00.719Z,53.09
2022-08-20T17:31:43.293Z,53.78
2022-08-20T17:34:24.208Z,53.53
2022-08-20T17:37:19.479Z,54.02
2022-08-20T17:39:49.983Z,54.20
2022-08-20T17:42:28.370Z,55.20
2022-08-20T17:45:15.310Z,55.67
2022-08-20T17:47:43.809Z,55.92
2022-08-20T17:50:20.399Z,57.29
2022-08-20T17:52:50.821Z,58.11
2022-08-20T17:55:19.652Z,57.56
2022-08-20T17:57:49.905Z,58.69
2022-08-20T18:00:23.518Z,58.99
2022-08-20T18:03:01.364Z,60.36
2022-08-20T18:05:34.435Z,60.82
2022-08-20T18:08:09.885Z,61.91
2022-08-20T18:11:07.481Z,61.81
2022-08-20T18:13:48.402Z,62.21
2022-08-20T18:16:25.764Z,63.33
2022-08-20T18:19:02.354Z,63.81
2022-08-20T18:21:52.354Z,64.19
2022-08-20T18:24:26.255Z,64.17
2022-08-20T18:26:59.445Z,65.37
2022-08-20T18:29:33.176Z,66.86
2022-08-20T18:32:02.447Z,67.31
2022-08-20T18:34:29.539Z,68.34
2022-08-20T18:37:16.829Z,69.50
2022-08-20T18:39:48.436Z,70.26
2022-08-20T18:42:34.954Z,71.72
2022-08-20T18:45:01.638Z,72.15
2022-08-20T18:47:33.692Z,72.81
2022-08-20T18:50:16.789Z,72.77
2022-08-20T18:52:49.529Z,73.13
2022-08-20T18:55:30.548Z,72.53
2022-08-20T18:58:06.822Z,72.56
2022-08-20T19:00:46.177Z,72.71
2022-08-20T19:03:18.572Z,74.14
2022-08-20T19:05:45.147Z,75.38
2022-08-20T19:08:19.930Z,75.93
2022-08-20T19:11:10.659Z,76.72
2022-08-20T19:13:40.167Z,77.09
2022-08-20T19:16:38.781Z,77.75
2022-08-20T19:19:15.286Z,79.32
2022-08-20T19:21:42.715Z,80.36
2022-08-20T19:24:14.408Z,80.83
2022-08-20T19:26:55.004Z,81.50
2022-08-20T19:29:27.565Z,81.83
2022-08-20T19:31:59.387Z,82.09
2022-08-20T19:34:26.910Z,82.00
2022-08-20T19:37:02.583Z,82.89
2022-08-20T19:39:36.949Z,82.75
2022-08-20T19:42:15.257Z,83.63
2022-08-20T19:44:53.334Z,82.99
2022-08-20T19:47:32.469Z,84.06
2022-08-20T19:50:21.619Z,84.88
2022-08-20T19:52:56.771Z,85.92
2022-08-20T19:55:30.666Z,85.34
2022-08-20T19:58:00.262Z,85.89
2022-08-20T20:00:29.946Z,86.70
2022-08-20T20:02:56.792Z,86.32
2022-08-20T20:05:23.489Z,87.80
2022-08-20T20:07:57.168Z,87.64
2022-08-20T20:10:32.456Z,87.98
2022-08-20T20:13:08.330Z,88.27
2022-08-20T20:15:35.950Z,87.89
2022-08-20T20:18:02.557Z,87.44
2022-08-20T20:20:33.438Z,86.77
2022-08-20T20:23:12.202Z,86.63
2022-08-20T20:25:45.129Z,86.62
2022-08-20T20:28:22.729Z,86.07
2022-08-20T20:30:49.769Z,86.00
2022-08-20T20:33:35.525Z,85.87
2022-08-20T20:36:11.022Z,85.28
2022-08-20T20:38:51.807Z,85.31
2022-08-20T20:41:23.039Z,85.78
2022-08-20T20:44:01.013Z,86.56
2022-08-20T20:46:30.056Z,87.08
2022-08-20T20:49:12.184Z,87.75
2022-08-20T20:51:41.404Z,87.78
2022-08-20T20:54:25.169Z,87.68
2022-08-20T20:57:03.879Z,88.24
2022-08-20T20:59:33.966Z,87.93
2022-08-20T21:02:01.033Z,88.15
2022-08-20T21:04:28.070Z,89.11
2022-08-20T21:06:56.830Z,89.20
2022-08-20T21:09:24.762Z,89.93
2022-08-20T21:11:52.110Z,91.42
2022-08-20T21:14:18.618Z,92.07
2022-08-20T21:16:45.287Z,92.74
2022-08-20T21:19:12.802Z,93.15
2022-08-20T21:21:40.000Z,93.81
2022-08-20T21:24:07.242Z,94.53
2022-08-20T21:26:34.323Z,94.06
2022-08-20T21:29:00.855Z,94.84
2022-08-20T21:31:33.441Z,95.78
2022-08-20T21:34:00.061Z,95.58
2022-08-20T21:36:26.891Z,96.46
2022-08-20T21:38:53.770Z,96.33
2022-08-20T21:41:29.603Z,96.70
2022-08-20T21:43:58.135Z,97.82
2022-08-20T21:46:25.909Z,97.77
2022-08-20T21:48:55.095Z,98.54
2022-08-20T21:51:21.638Z,98.56
2022-08-20T21:53:48.269Z,98.47
2022-08-20T21:56:14.715Z,99.55
2022-08-20T21:58:41.693Z,100.00
2022-08-20T22:01:08.185Z,100.00
2022-08-20T22:03:38.904Z,100.00
2022-08-20T22:06:09.516Z,100.00
2022-08-20T22:08:36.424Z,100.00
2022-08-20T22:11:04.800Z,100.00
2022-08-20T22:13:33.135Z,100.00
2022-08-20T22:16:01.236Z,100.00
2022-08-20T22:18:28.441Z,100.00
2022-08-20T22:20:55.016Z,100.00
2022-08-20T22:23:21.531Z,100.00
2022-08-20T22:25:48.540Z,100.00
2022-08-20T22:28:14.996Z,100.00
2022-08-20T22:30:42.572Z,100.00
2022-08-20T22:33:12.600Z,100.00
2022-08-20T22:35:43.969Z,100.00
2022-08-20T22:38:10.733Z,100.00
2022-08-20T22:40:37.391Z,100.00
2022-08-20T22:43:06.750Z,100.00
2022-08-20T22:45:33.314Z,100.00
2022-08-20T22:48:00.602Z,100.00
2022-08-20T22:50:28.297Z,100.00
2022-08-20T22:52:55.144Z,100.00
2022-08-20T22:55:21.559Z,100.00
2022-08-20T22:57:48.781Z,100.00
2022-08-20T23:00:17.147Z,100.00
2022-08-20T23:02:47.997Z,100.00
2022-08-20T23:05:20.141Z,100.00
2022-08-20T23:07:51.905Z,100.00
2022-08-20T23:10:20.446Z,100.00
2022-08-20T23:12:46.914Z,100.00
2022-08-20T23:15:13.420Z,100.00
2022-08-20T23:17:39.980Z,100.00
2022-08-20T23:20:08.810Z,100.00
2022-08-20T23:22:35.782Z,100.00
2022-08-20T23:25:04.638Z,100.00
2022-08-20T23:27:32.772Z,100.00
2022-08-20T23:29:59.446Z,100.00
2022-08-20T23:32:26.134Z,100.00
2022-08-20T23:34:52.724Z,100.00
2022-08-20T23:37:19.799Z,100.00
2022-08-20T23:39:46.525Z,100.00
2022-08-20T23:42:14.223Z,100.00
2022-08-20T23:44:40.983Z,100.00
2022-08-20T23:47:08.503Z,100.00
2022-08-20T23:49:35.187Z,100.00
2022-08-20T23:52:01.603Z,100.00
2022-08-20T23:54:30.341Z,100.00
2022-08-20T23:56:57.643Z,100.00
2022-08-20T23:59:24.605Z,100.00
